createdAt,value
2022-12-25T04:15:31.620Z,7.10
2022-12-25T04:20:42.992Z,7.20
2022-12-25T10:45:58.078Z,7.00
2022-12-25T10:52:12.173Z,7.00
2022-12-25T10:57:16.270Z,7.00
2022-12-25T11:07:24.231Z,7.00
2022-12-25T11:12:21.859Z,6.90
2022-12-25T11:17:23.778Z,6.90
2022-12-25T14:00:59.263Z,6.80
2022-12-25T14:05:59.202Z,6.80
2022-12-25T14:10:57.054Z,6.80
2022-12-25T14:21:43.617Z,6.90
2022-12-25T14:31:52.307Z,7.20
2022-12-25T14:36:49.352Z,7.20
2022-12-25T14:46:43.367Z,7.30
2022-12-25T14:51:40.435Z,7.20
2022-12-25T14:56:39.296Z,7.30
2022-12-25T15:01:36.600Z,7.30
2022-12-25T15:06:32.310Z,7.30
2022-12-25T15:11:25.871Z,7.30
2022-12-25T15:16:24.844Z,7.30
2022-12-25T15:21:27.241Z,7.40
2022-12-25T15:26:20.732Z,7.40
2022-12-25T15:31:25.301Z,7.40
2022-12-25T15:36:19.244Z,7.40
2022-12-25T15:41:32.588Z,7.40
2022-12-25T15:46:27.469Z,7.40
2022-12-25T15:51:20.979Z,7.40
2022-12-25T15:56:14.995Z,7.40
2022-12-25T16:01:10.509Z,7.40
2022-12-25T16:06:05.504Z,7.40
2022-12-25T16:10:59.344Z,7.40
2022-12-25T16:15:52.706Z,7.40
2022-12-25T16:20:46.764Z,7.30
2022-12-25T16:25:41.972Z,7.40
2022-12-25T16:30:35.299Z,7.40
2022-12-25T16:35:28.636Z,7.50
2022-12-25T16:40:22.778Z,7.40
2022-12-25T16:45:17.867Z,7.50
2022-12-25T16:50:11.984Z,7.40
2022-12-25T16:55:06.048Z,7.40
2022-12-25T17:00:00.032Z,7.40
2022-12-25T17:04:55.162Z,7.30
2022-12-25T17:09:49.639Z,7.30
2022-12-25T17:14:43.296Z,7.30
2022-12-25T17:19:36.724Z,7.30
2022-12-25T17:24:31.509Z,7.40
2022-12-25T17:29:25.969Z,7.40
2022-12-25T17:34:19.711Z,7.40
2022-12-25T17:39:13.424Z,7.40
2022-12-25T17:44:08.396Z,7.40
2022-12-25T17:49:03.000Z,7.40
2022-12-25T17:53:59.426Z,7.40
2022-12-25T17:58:54.874Z,7.40
2022-12-25T18:03:50.301Z,7.50
2022-12-25T18:08:46.866Z,7.40
2022-12-25T18:13:42.178Z,7.40
2022-12-25T18:18:36.486Z,7.20
2022-12-25T18:23:31.446Z,7.30
2022-12-25T18:28:25.044Z,7.30
2022-12-25T18:33:18.460Z,7.20
2022-12-25T18:38:12.863Z,7.20
2022-12-25T18:43:07.763Z,7.20
2022-12-25T18:48:03.304Z,7.10
2022-12-25T18:52:57.038Z,7.20
2022-12-25T18:57:50.647Z,7.20
2022-12-25T19:02:45.704Z,7.20
2022-12-25T19:07:40.163Z,7.30
2022-12-25T19:12:34.034Z,7.30
2022-12-25T19:17:31.895Z,7.20
2022-12-25T19:22:27.974Z,7.20
2022-12-25T19:27:21.484Z,7.10
2022-12-25T19:32:15.034Z,7.00
2022-12-25T19:37:08.547Z,6.80
2022-12-25T19:42:03.399Z,6.80
2022-12-25T19:46:56.991Z,6.70
2022-12-25T19:51:50.369Z,6.70
